sensor_id;sensor_type;location;lat;lon;timestamp;pressure;altitude;pressure_sealevel;temperature;humidity
740;BME280;354;42.694;23.336;2023-04-04T00:01:15;93911.84;;;8.60;100.00
740;BME280;354;42.694;23.336;2023-04-04T00:03:41;93904.69;;;8.55;100.00
740;BME280;354;42.694;23.336;2023-04-04T00:06:07;93900.94;;;8.51;100.00
740;BME280;354;42.694;23.336;2023-04-04T00:08:32;93918.59;;;8.56;100.00
740;BME280;354;42.694;23.336;2023-04-04T00:10:58;93914.84;;;8.52;100.00
740;BME280;354;42.694;23.336;2023-04-04T00:13:24;93923.25;;;8.65;100.00
740;BME280;354;42.694;23.336;2023-04-04T00:15:51;93930.31;;;8.65;100.00
740;BME280;354;42.694;23.336;2023-04-04T00:18:16;93936.25;;;8.60;100.00
740;BME280;354;42.694;23.336;2023-04-04T00:20:41;93936.59;;;8.64;100.00
740;BME280;354;42.694;23.336;2023-04-04T00:23:07;93929.41;;;8.59;100.00
740;BME280;354;42.694;23.336;2023-04-04T00:25:35;93944.31;;;8.70;100.00
740;BME280;354;42.694;23.336;2023-04-04T00:28:00;93934.97;;;8.75;100.00
740;BME280;354;42.694;23.336;2023-04-04T00:30:26;93921.97;;;8.68;100.00
740;BME280;354;42.694;23.336;2023-04-04T00:32:52;93922.66;;;8.75;100.00
740;BME280;354;42.694;23.336;2023-04-04T00:35:17;93903.72;;;8.73;100.00
740;BME280;354;42.694;23.336;2023-04-04T00:37:43;93917.53;;;8.80;100.00
740;BME280;354;42.694;23.336;2023-04-04T00:40:08;93913.88;;;8.81;100.00
740;BME280;354;42.694;23.336;2023-04-04T00:42:34;93903.38;;;8.81;100.00
740;BME280;354;42.694;23.336;2023-04-04T00:44:59;93873.09;;;8.62;100.00
740;BME280;354;42.694;23.336;2023-04-04T00:47:28;93879.38;;;8.61;100.00
740;BME280;354;42.694;23.336;2023-04-04T00:49:54;93886.91;;;8.69;100.00
740;BME280;354;42.694;23.336;2023-04-04T00:52:19;93877.06;;;8.76;100.00
740;BME280;354;42.694;23.336;2023-04-04T00:54:45;93862.28;;;8.70;100.00
740;BME280;354;42.694;23.336;2023-04-04T00:57:10;93882.16;;;8.83;100.00
740;BME280;354;42.694;23.336;2023-04-04T00:59:36;93879.09;;;8.86;100.00
740;BME280;354;42.694;23.336;2023-04-04T01:02:02;93852.47;;;8.65;100.00
740;BME280;354;42.694;23.336;2023-04-04T01:04:28;93890.56;;;8.96;100.00
740;BME280;354;42.694;23.336;2023-04-04T01:06:55;93893.78;;;8.87;100.00
740;BME280;354;42.694;23.336;2023-04-04T01:09:21;93899.28;;;8.85;100.00
740;BME280;354;42.694;23.336;2023-04-04T01:11:47;93896.97;;;8.89;100.00
740;BME280;354;42.694;23.336;2023-04-04T01:14:12;93886.84;;;8.81;100.00
740;BME280;354;42.694;23.336;2023-04-04T01:16:38;93877.63;;;8.78;100.00
740;BME280;354;42.694;23.336;2023-04-04T01:19:08;93896.03;;;8.95;100.00
740;BME280;354;42.694;23.336;2023-04-04T01:21:36;93896.16;;;8.88;100.00
740;BME280;354;42.694;23.336;2023-04-04T01:24:03;93902.09;;;8.95;100.00
740;BME280;354;42.694;23.336;2023-04-04T01:26:29;93905.72;;;8.94;100.00
740;BME280;354;42.694;23.336;2023-04-04T01:28:56;93919.03;;;9.05;100.00
740;BME280;354;42.694;23.336;2023-04-04T01:31:34;93908.94;;;8.96;100.00
740;BME280;354;42.694;23.336;2023-04-04T01:39:53;93911.75;;;9.07;100.00
740;BME280;354;42.694;23.336;2023-04-04T01:42:21;93904.09;;;9.05;100.00
740;BME280;354;42.694;23.336;2023-04-04T01:44:55;93889.06;;;9.01;100.00
740;BME280;354;42.694;23.336;2023-04-04T01:47:21;93891.78;;;9.06;100.00
740;BME280;354;42.694;23.336;2023-04-04T01:49:47;93885.19;;;9.03;100.00
740;BME280;354;42.694;23.336;2023-04-04T01:52:13;93885.13;;;9.15;100.00
740;BME280;354;42.694;23.336;2023-04-04T01:54:38;93881.78;;;9.03;100.00
740;BME280;354;42.694;23.336;2023-04-04T01:57:04;93876.22;;;9.16;100.00
740;BME280;354;42.694;23.336;2023-04-04T01:59:29;93856.75;;;9.12;100.00
740;BME280;354;42.694;23.336;2023-04-04T02:01:54;93863.03;;;9.11;100.00
740;BME280;354;42.694;23.336;2023-04-04T02:04:20;93861.72;;;8.96;100.00
740;BME280;354;42.694;23.336;2023-04-04T02:06:46;93837.28;;;8.79;100.00
740;BME280;354;42.694;23.336;2023-04-04T02:09:11;93856.28;;;8.86;100.00
740;BME280;354;42.694;23.336;2023-04-04T02:11:42;93843.53;;;8.78;100.00
740;BME280;354;42.694;23.336;2023-04-04T02:14:07;93874.41;;;8.88;100.00
740;BME280;354;42.694;23.336;2023-04-04T02:16:33;93865.97;;;8.86;100.00
740;BME280;354;42.694;23.336;2023-04-04T02:18:59;93863.25;;;8.81;100.00
740;BME280;354;42.694;23.336;2023-04-04T02:21:24;93857.22;;;8.80;100.00
740;BME280;354;42.694;23.336;2023-04-04T02:23:51;93837.78;;;8.64;100.00
740;BME280;354;42.694;23.336;2023-04-04T02:26:16;93848.13;;;8.71;100.00
740;BME280;354;42.694;23.336;2023-04-04T02:28:42;93853.13;;;8.73;100.00
740;BME280;354;42.694;23.336;2023-04-04T02:31:07;93852.59;;;8.70;100.00
740;BME280;354;42.694;23.336;2023-04-04T02:33:32;93814.13;;;8.48;100.00
740;BME280;354;42.694;23.336;2023-04-04T02:35:58;93843.81;;;8.65;100.00
740;BME280;354;42.694;23.336;2023-04-04T02:38:24;93846.00;;;8.56;100.00
740;BME280;354;42.694;23.336;2023-04-04T02:40:50;93845.69;;;8.53;100.00
740;BME280;354;42.694;23.336;2023-04-04T02:43:16;93837.59;;;8.54;100.00
740;BME280;354;42.694;23.336;2023-04-04T02:45:41;93849.09;;;8.53;100.00
740;BME280;354;42.694;23.336;2023-04-04T02:48:06;93854.56;;;8.52;100.00
740;BME280;354;42.694;23.336;2023-04-04T02:50:32;93840.69;;;8.39;100.00
740;BME280;354;42.694;23.336;2023-04-04T02:53:01;93858.41;;;8.61;100.00
740;BME280;354;42.694;23.336;2023-04-04T02:55:27;93858.41;;;8.61;100.00
740;BME280;354;42.694;23.336;2023-04-04T02:57:52;93853.41;;;8.59;100.00
740;BME280;354;42.694;23.336;2023-04-04T03:00:18;93856.81;;;8.60;100.00
740;BME280;354;42.694;23.336;2023-04-04T03:02:44;93836.25;;;8.52;100.00
740;BME280;354;42.694;23.336;2023-04-04T03:05:10;93853.72;;;8.75;100.00
740;BME280;354;42.694;23.336;2023-04-04T03:07:35;93839.03;;;8.62;100.00
740;BME280;354;42.694;23.336;2023-04-04T03:10:01;93834.94;;;8.66;100.00
740;BME280;354;42.694;23.336;2023-04-04T03:12:26;93856.53;;;8.73;100.00
740;BME280;354;42.694;23.336;2023-04-04T03:14:52;93860.50;;;8.87;100.00
740;BME280;354;42.694;23.336;2023-04-04T03:17:18;93856.19;;;8.81;100.00
740;BME280;354;42.694;23.336;2023-04-04T03:19:43;93864.94;;;8.87;100.00
740;BME280;354;42.694;23.336;2023-04-04T03:22:09;93866.53;;;8.88;100.00
740;BME280;354;42.694;23.336;2023-04-04T03:24:34;93859.16;;;8.85;100.00
740;BME280;354;42.694;23.336;2023-04-04T03:27:00;93873.16;;;8.90;100.00
740;BME280;354;42.694;23.336;2023-04-04T03:29:26;93864.41;;;8.85;100.00
740;BME280;354;42.694;23.336;2023-04-04T03:31:51;93861.09;;;8.78;100.00
740;BME280;354;42.694;23.336;2023-04-04T03:34:16;93869.00;;;8.94;100.00
740;BME280;354;42.694;23.336;2023-04-04T03:36:42;93853.19;;;8.89;100.00
740;BME280;354;42.694;23.336;2023-04-04T03:39:07;93868.72;;;8.91;100.00
740;BME280;354;42.694;23.336;2023-04-04T03:41:34;93867.06;;;9.02;100.00
740;BME280;354;42.694;23.336;2023-04-04T03:43:59;93870.94;;;8.99;100.00
740;BME280;354;42.694;23.336;2023-04-04T03:46:25;93869.34;;;8.98;100.00
740;BME280;354;42.694;23.336;2023-04-04T03:48:50;93876.53;;;9.03;100.00
740;BME280;354;42.694;23.336;2023-04-04T03:51:25;93867.16;;;9.07;100.00
740;BME280;354;42.694;23.336;2023-04-04T03:53:51;93845.22;;;8.84;100.00
740;BME280;354;42.694;23.336;2023-04-04T03:56:17;93875.03;;;9.07;100.00
740;BME280;354;42.694;23.336;2023-04-04T03:58:43;93884.69;;;9.06;100.00
740;BME280;354;42.694;23.336;2023-04-04T04:01:08;93873.06;;;9.14;100.00
740;BME280;354;42.694;23.336;2023-04-04T04:03:33;93877.88;;;9.05;100.00
740;BME280;354;42.694;23.336;2023-04-04T04:05:59;93879.06;;;8.97;100.00
740;BME280;354;42.694;23.336;2023-04-04T04:08:25;93871.72;;;9.00;100.00
740;BME280;354;42.694;23.336;2023-04-04T04:10:50;93847.88;;;8.73;100.00
740;BME280;354;42.694;23.336;2023-04-04T04:13:16;93846.13;;;8.90;100.00
740;BME280;354;42.694;23.336;2023-04-04T04:15:41;93871.09;;;8.92;100.00
740;BME280;354;42.694;23.336;2023-04-04T04:18:06;93874.50;;;8.93;100.00
740;BME280;354;42.694;23.336;2023-04-04T04:20:32;93847.38;;;8.87;100.00
740;BME280;354;42.694;23.336;2023-04-04T04:22:57;93872.88;;;9.04;100.00
740;BME280;354;42.694;23.336;2023-04-04T04:25:22;93855.34;;;8.92;100.00
740;BME280;354;42.694;23.336;2023-04-04T04:27:48;93875.19;;;9.17;100.00
740;BME280;354;42.694;23.336;2023-04-04T04:30:13;93879.09;;;9.14;100.00
740;BME280;354;42.694;23.336;2023-04-04T04:32:39;93886.72;;;9.16;100.00
740;BME280;354;42.694;23.336;2023-04-04T04:35:05;93894.31;;;9.29;100.00
740;BME280;354;42.694;23.336;2023-04-04T04:37:31;93898.63;;;9.35;100.00
740;BME280;354;42.694;23.336;2023-04-04T04:39:56;93881.34;;;9.39;100.00
740;BME280;354;42.694;23.336;2023-04-04T04:42:22;93882.88;;;9.35;100.00
740;BME280;354;42.694;23.336;2023-04-04T04:44:47;93901.28;;;9.52;100.00
740;BME280;354;42.694;23.336;2023-04-04T04:47:12;93912.03;;;9.50;100.00
740;BME280;354;42.694;23.336;2023-04-04T04:49:38;93907.56;;;9.51;100.00
740;BME280;354;42.694;23.336;2023-04-04T04:52:03;93903.38;;;9.38;100.00
740;BME280;354;42.694;23.336;2023-04-04T04:54:29;93889.16;;;9.34;100.00
740;BME280;354;42.694;23.336;2023-04-04T04:56:54;93901.06;;;9.25;100.00
740;BME280;354;42.694;23.336;2023-04-04T04:59:20;93918.88;;;9.23;100.00
740;BME280;354;42.694;23.336;2023-04-04T05:01:45;93920.66;;;9.34;100.00
740;BME280;354;42.694;23.336;2023-04-04T05:04:11;93920.66;;;9.34;100.00
740;BME280;354;42.694;23.336;2023-04-04T05:06:37;93917.28;;;9.50;100.00
740;BME280;354;42.694;23.336;2023-04-04T05:09:03;93919.16;;;9.55;100.00
740;BME280;354;42.694;23.336;2023-04-04T05:11:28;93920.03;;;9.61;100.00
740;BME280;354;42.694;23.336;2023-04-04T05:13:54;93896.19;;;9.62;100.00
740;BME280;354;42.694;23.336;2023-04-04T05:16:19;93921.59;;;9.90;100.00
740;BME280;354;42.694;23.336;2023-04-04T05:18:44;93923.72;;;9.76;100.00
740;BME280;354;42.694;23.336;2023-04-04T05:21:10;93926.50;;;9.70;100.00
740;BME280;354;42.694;23.336;2023-04-04T05:23:35;93934.72;;;9.90;100.00
740;BME280;354;42.694;23.336;2023-04-04T05:26:00;93931.22;;;9.85;100.00
740;BME280;354;42.694;23.336;2023-04-04T05:28:27;93915.13;;;9.64;100.00
740;BME280;354;42.694;23.336;2023-04-04T05:30:52;93931.22;;;9.68;100.00
740;BME280;354;42.694;23.336;2023-04-04T05:33:18;93928.34;;;9.69;100.00
740;BME280;354;42.694;23.336;2023-04-04T05:35:43;93926.94;;;9.79;100.00
740;BME280;354;42.694;23.336;2023-04-04T05:38:09;93939.03;;;9.96;100.00
740;BME280;354;42.694;23.336;2023-04-04T05:40:35;93920.56;;;9.91;100.00
740;BME280;354;42.694;23.336;2023-04-04T05:43:01;93934.41;;;10.03;100.00
740;BME280;354;42.694;23.336;2023-04-04T05:45:28;93927.09;;;10.06;100.00
740;BME280;354;42.694;23.336;2023-04-04T05:47:54;93934.63;;;10.19;100.00
740;BME280;354;42.694;23.336;2023-04-04T05:50:20;93923.50;;;10.12;100.00
740;BME280;354;42.694;23.336;2023-04-04T05:52:45;93914.50;;;10.08;100.00
740;BME280;354;42.694;23.336;2023-04-04T05:55:11;93935.38;;;10.31;100.00
740;BME280;354;42.694;23.336;2023-04-04T05:57:36;93946.81;;;10.59;100.00
740;BME280;354;42.694;23.336;2023-04-04T06:00:03;93935.78;;;10.78;100.00
740;BME280;354;42.694;23.336;2023-04-04T06:02:30;93931.97;;;10.91;100.00
740;BME280;354;42.694;23.336;2023-04-04T06:04:56;93938.47;;;11.05;100.00
740;BME280;354;42.694;23.336;2023-04-04T06:07:21;93934.06;;;11.11;100.00
740;BME280;354;42.694;23.336;2023-04-04T06:09:47;93936.91;;;11.09;100.00
740;BME280;354;42.694;23.336;2023-04-04T06:12:12;93936.44;;;11.13;100.00
740;BME280;354;42.694;23.336;2023-04-04T06:14:37;93937.44;;;11.06;100.00
740;BME280;354;42.694;23.336;2023-04-04T06:17:03;93943.41;;;11.24;100.00
740;BME280;354;42.694;23.336;2023-04-04T06:19:29;93943.38;;;11.46;100.00
740;BME280;354;42.694;23.336;2023-04-04T06:21:54;93938.19;;;11.29;100.00
740;BME280;354;42.694;23.336;2023-04-04T06:24:20;93939.53;;;11.31;100.00
740;BME280;354;42.694;23.336;2023-04-04T06:26:45;93952.16;;;11.29;100.00
740;BME280;354;42.694;23.336;2023-04-04T06:29:15;93950.38;;;11.35;100.00
740;BME280;354;42.694;23.336;2023-04-04T06:31:40;93947.09;;;11.01;100.00
740;BME280;354;42.694;23.336;2023-04-04T06:34:06;93931.47;;;10.17;100.00
740;BME280;354;42.694;23.336;2023-04-04T06:36:31;93969.38;;;9.59;100.00
740;BME280;354;42.694;23.336;2023-04-04T06:38:57;93980.41;;;8.92;100.00
740;BME280;354;42.694;23.336;2023-04-04T06:41:22;93984.34;;;8.54;100.00
740;BME280;354;42.694;23.336;2023-04-04T06:43:47;93985.66;;;8.33;100.00
740;BME280;354;42.694;23.336;2023-04-04T06:46:13;93970.34;;;7.83;100.00
740;BME280;354;42.694;23.336;2023-04-04T06:48:38;93998.50;;;8.11;100.00
740;BME280;354;42.694;23.336;2023-04-04T06:51:07;94007.28;;;8.17;100.00
740;BME280;354;42.694;23.336;2023-04-04T06:53:33;94014.47;;;7.80;100.00
740;BME280;354;42.694;23.336;2023-04-04T06:55:59;94004.22;;;7.36;100.00
740;BME280;354;42.694;23.336;2023-04-04T06:58:25;94015.56;;;7.12;100.00
740;BME280;354;42.694;23.336;2023-04-04T07:00:50;94025.56;;;7.33;100.00
740;BME280;354;42.694;23.336;2023-04-04T07:03:15;94005.44;;;7.34;100.00
740;BME280;354;42.694;23.336;2023-04-04T07:05:41;94040.50;;;7.15;100.00
740;BME280;354;42.694;23.336;2023-04-04T07:08:07;94033.66;;;7.32;100.00
740;BME280;354;42.694;23.336;2023-04-04T07:10:33;94043.09;;;7.93;100.00
740;BME280;354;42.694;23.336;2023-04-04T07:12:59;94058.78;;;7.81;100.00
740;BME280;354;42.694;23.336;2023-04-04T07:15:24;94066.94;;;7.73;100.00
740;BME280;354;42.694;23.336;2023-04-04T07:17:50;94063.03;;;7.64;100.00
740;BME280;354;42.694;23.336;2023-04-04T07:20:15;94065.00;;;7.50;100.00
740;BME280;354;42.694;23.336;2023-04-04T07:22:41;94075.94;;;7.10;100.00
740;BME280;354;42.694;23.336;2023-04-04T07:25:09;94090.97;;;7.33;100.00
740;BME280;354;42.694;23.336;2023-04-04T07:27:34;94053.09;;;6.81;100.00
740;BME280;354;42.694;23.336;2023-04-04T07:30:00;94087.75;;;6.95;100.00
740;BME280;354;42.694;23.336;2023-04-04T07:32:26;94078.00;;;6.83;100.00
740;BME280;354;42.694;23.336;2023-04-04T07:34:51;94101.53;;;6.83;100.00
740;BME280;354;42.694;23.336;2023-04-04T07:37:16;94108.16;;;6.61;100.00
740;BME280;354;42.694;23.336;2023-04-04T07:39:42;94113.88;;;6.76;100.00
740;BME280;354;42.694;23.336;2023-04-04T07:42:08;94105.09;;;6.64;100.00
740;BME280;354;42.694;23.336;2023-04-04T07:44:34;94106.75;;;6.83;100.00
740;BME280;354;42.694;23.336;2023-04-04T07:47:00;94114.75;;;6.89;100.00
740;BME280;354;42.694;23.336;2023-04-04T07:49:25;94087.28;;;6.79;100.00
740;BME280;354;42.694;23.336;2023-04-04T07:51:50;94112.19;;;7.25;100.00
740;BME280;354;42.694;23.336;2023-04-04T07:54:16;94115.06;;;7.17;100.00
740;BME280;354;42.694;23.336;2023-04-04T07:56:41;94110.19;;;7.02;100.00
740;BME280;354;42.694;23.336;2023-04-04T07:59:07;94116.69;;;7.36;100.00
740;BME280;354;42.694;23.336;2023-04-04T08:01:32;94078.72;;;6.72;100.00
740;BME280;354;42.694;23.336;2023-04-04T08:03:57;94116.75;;;7.11;100.00
740;BME280;354;42.694;23.336;2023-04-04T08:06:23;94144.78;;;6.79;100.00
740;BME280;354;42.694;23.336;2023-04-04T08:08:48;94149.22;;;7.04;100.00
740;BME280;354;42.694;23.336;2023-04-04T08:11:14;94121.22;;;6.61;100.00
740;BME280;354;42.694;23.336;2023-04-04T08:13:39;94139.88;;;6.90;100.00
740;BME280;354;42.694;23.336;2023-04-04T08:16:05;94133.28;;;6.87;100.00
740;BME280;354;42.694;23.336;2023-04-04T08:18:31;94139.63;;;7.16;100.00
740;BME280;354;42.694;23.336;2023-04-04T08:20:57;94148.28;;;7.35;100.00
740;BME280;354;42.694;23.336;2023-04-04T08:23:23;94159.84;;;7.46;100.00
740;BME280;354;42.694;23.336;2023-04-04T08:25:48;94163.31;;;7.58;100.00
740;BME280;354;42.694;23.336;2023-04-04T08:28:14;94160.56;;;7.71;100.00
740;BME280;354;42.694;23.336;2023-04-04T08:30:39;94167.75;;;7.21;100.00
740;BME280;354;42.694;23.336;2023-04-04T08:33:05;94168.56;;;7.21;100.00
740;BME280;354;42.694;23.336;2023-04-04T08:35:31;94150.19;;;7.03;100.00
740;BME280;354;42.694;23.336;2023-04-04T08:37:56;94177.59;;;7.00;100.00
740;BME280;354;42.694;23.336;2023-04-04T08:40:22;94162.22;;;6.60;100.00
740;BME280;354;42.694;23.336;2023-04-04T08:42:49;94145.50;;;6.37;100.00
740;BME280;354;42.694;23.336;2023-04-04T08:45:17;94171.94;;;6.47;100.00
740;BME280;354;42.694;23.336;2023-04-04T08:47:44;94175.06;;;6.62;100.00
740;BME280;354;42.694;23.336;2023-04-04T08:50:11;94176.84;;;6.37;100.00
740;BME280;354;42.694;23.336;2023-04-04T08:52:37;94177.81;;;6.04;100.00
740;BME280;354;42.694;23.336;2023-04-04T08:55:04;94189.00;;;6.18;100.00
740;BME280;354;42.694;23.336;2023-04-04T08:57:29;94188.13;;;6.30;100.00
740;BME280;354;42.694;23.336;2023-04-04T08:59:55;94181.94;;;6.25;100.00
740;BME280;354;42.694;23.336;2023-04-04T09:04:53;94189.75;;;6.25;100.00
740;BME280;354;42.694;23.336;2023-04-04T09:07:20;94214.19;;;6.37;100.00
740;BME280;354;42.694;23.336;2023-04-04T09:09:47;94204.72;;;6.11;100.00
740;BME280;354;42.694;23.336;2023-04-04T09:12:14;94191.88;;;6.03;100.00
740;BME280;354;42.694;23.336;2023-04-04T09:14:41;94210.78;;;5.98;100.00
740;BME280;354;42.694;23.336;2023-04-04T09:17:07;94193.91;;;5.88;100.00
740;BME280;354;42.694;23.336;2023-04-04T09:19:34;94195.63;;;5.62;100.00
740;BME280;354;42.694;23.336;2023-04-04T09:22:00;94221.66;;;5.89;100.00
740;BME280;354;42.694;23.336;2023-04-04T09:24:39;94221.66;;;5.82;100.00
740;BME280;354;42.694;23.336;2023-04-04T09:27:06;94219.66;;;5.84;100.00
740;BME280;354;42.694;23.336;2023-04-04T09:29:33;94215.66;;;5.75;100.00
740;BME280;354;42.694;23.336;2023-04-04T09:31:59;94217.31;;;5.63;100.00
740;BME280;354;42.694;23.336;2023-04-04T09:34:25;94224.31;;;5.69;100.00
740;BME280;354;42.694;23.336;2023-04-04T09:36:52;94225.66;;;5.85;100.00
740;BME280;354;42.694;23.336;2023-04-04T09:39:18;94220.84;;;5.81;100.00
740;BME280;354;42.694;23.336;2023-04-04T09:41:45;94209.06;;;5.59;100.00
740;BME280;354;42.694;23.336;2023-04-04T09:44:11;94221.25;;;5.92;100.00
740;BME280;354;42.694;23.336;2023-04-04T09:46:38;94232.91;;;5.82;100.00
740;BME280;354;42.694;23.336;2023-04-04T09:49:03;94238.50;;;5.86;100.00
740;BME280;354;42.694;23.336;2023-04-04T09:51:33;94233.78;;;6.15;100.00
740;BME280;354;42.694;23.336;2023-04-04T09:54:03;94232.47;;;5.86;100.00
740;BME280;354;42.694;23.336;2023-04-04T09:56:32;94237.16;;;5.77;100.00
740;BME280;354;42.694;23.336;2023-04-04T09:58:58;94243.72;;;5.93;100.00
740;BME280;354;42.694;23.336;2023-04-04T10:01:24;94228.31;;;5.71;100.00
740;BME280;354;42.694;23.336;2023-04-04T10:03:53;94237.88;;;5.97;100.00
740;BME280;354;42.694;23.336;2023-04-04T10:06:20;94232.63;;;6.04;100.00
740;BME280;354;42.694;23.336;2023-04-04T10:08:45;94242.78;;;6.32;100.00
740;BME280;354;42.694;23.336;2023-04-04T10:11:12;94241.97;;;6.63;100.00
740;BME280;354;42.694;23.336;2023-04-04T10:13:38;94230.19;;;6.54;100.00
740;BME280;354;42.694;23.336;2023-04-04T10:16:11;94250.91;;;6.80;100.00
740;BME280;354;42.694;23.336;2023-04-04T10:18:37;94219.75;;;6.54;100.00
740;BME280;354;42.694;23.336;2023-04-04T10:21:05;94249.91;;;6.50;100.00
740;BME280;354;42.694;23.336;2023-04-04T10:23:31;94255.56;;;6.78;100.00
740;BME280;354;42.694;23.336;2023-04-04T10:25:59;94263.13;;;6.86;100.00
740;BME280;354;42.694;23.336;2023-04-04T10:28:25;94264.31;;;6.91;100.00
740;BME280;354;42.694;23.336;2023-04-04T10:31:23;94269.97;;;6.88;100.00
740;BME280;354;42.694;23.336;2023-04-04T10:33:59;94288.88;;;6.51;100.00
740;BME280;354;42.694;23.336;2023-04-04T10:37:19;94282.69;;;5.94;100.00
740;BME280;354;42.694;23.336;2023-04-04T10:39:26;94265.00;;;5.76;100.00
740;BME280;354;42.694;23.336;2023-04-04T10:41:54;94273.03;;;5.88;100.00
740;BME280;354;42.694;23.336;2023-04-04T10:44:28;94272.03;;;5.89;100.00
740;BME280;354;42.694;23.336;2023-04-04T10:46:56;94255.88;;;6.19;100.00
740;BME280;354;42.694;23.336;2023-04-04T10:49:24;94262.47;;;6.28;100.00
740;BME280;354;42.694;23.336;2023-04-04T10:51:50;94285.03;;;6.16;100.00
740;BME280;354;42.694;23.336;2023-04-04T10:54:17;94296.75;;;6.45;100.00
740;BME280;354;42.694;23.336;2023-04-04T10:56:42;94295.44;;;6.67;100.00
740;BME280;354;42.694;23.336;2023-04-04T10:59:13;94298.91;;;6.93;100.00
740;BME280;354;42.694;23.336;2023-04-04T11:01:55;94296.84;;;7.26;100.00
740;BME280;354;42.694;23.336;2023-04-04T11:04:45;94305.72;;;7.50;100.00
740;BME280;354;42.694;23.336;2023-04-04T11:07:17;94295.56;;;7.35;100.00
740;BME280;354;42.694;23.336;2023-04-04T11:09:53;94307.78;;;7.42;100.00
740;BME280;354;42.694;23.336;2023-04-04T11:12:30;94303.19;;;7.12;100.00
740;BME280;354;42.694;23.336;2023-04-04T11:15:05;94308.38;;;7.44;100.00
740;BME280;354;42.694;23.336;2023-04-04T11:20:17;94282.72;;;6.77;100.00
740;BME280;354;42.694;23.336;2023-04-04T11:22:44;94301.94;;;6.90;100.00
740;BME280;354;42.694;23.336;2023-04-04T11:25:28;94311.47;;;7.34;100.00
740;BME280;354;42.694;23.336;2023-04-04T11:27:55;94310.94;;;7.50;100.00
740;BME280;354;42.694;23.336;2023-04-04T11:30:23;94300.50;;;7.25;100.00
740;BME280;354;42.694;23.336;2023-04-04T11:32:49;94322.59;;;6.98;100.00
740;BME280;354;42.694;23.336;2023-04-04T11:35:15;94327.78;;;6.66;100.00
740;BME280;354;42.694;23.336;2023-04-04T11:40:16;94334.19;;;6.77;100.00
740;BME280;354;42.694;23.336;2023-04-04T11:42:42;94299.47;;;6.63;100.00
740;BME280;354;42.694;23.336;2023-04-04T11:45:08;94320.19;;;6.58;100.00
740;BME280;354;42.694;23.336;2023-04-04T11:47:37;94324.41;;;6.59;100.00
740;BME280;354;42.694;23.336;2023-04-04T11:50:07;94326.56;;;6.24;100.00
740;BME280;354;42.694;23.336;2023-04-04T11:52:34;94316.22;;;6.49;100.00
740;BME280;354;42.694;23.336;2023-04-04T11:54:59;94325.53;;;6.25;100.00
740;BME280;354;42.694;23.336;2023-04-04T11:57:25;94323.97;;;6.17;100.00
740;BME280;354;42.694;23.336;2023-04-04T11:59:51;94340.47;;;6.11;100.00
740;BME280;354;42.694;23.336;2023-04-04T12:02:22;94333.28;;;5.73;100.00
740;BME280;354;42.694;23.336;2023-04-04T12:04:51;94316.03;;;5.59;100.00
740;BME280;354;42.694;23.336;2023-04-04T12:07:16;94334.28;;;5.79;100.00
740;BME280;354;42.694;23.336;2023-04-04T12:09:43;94330.44;;;5.88;100.00
740;BME280;354;42.694;23.336;2023-04-04T12:12:14;94335.69;;;5.68;100.00
740;BME280;354;42.694;23.336;2023-04-04T12:14:40;94335.66;;;5.81;100.00
740;BME280;354;42.694;23.336;2023-04-04T12:17:06;94327.97;;;6.26;100.00
740;BME280;354;42.694;23.336;2023-04-04T12:19:35;94332.53;;;6.31;100.00
740;BME280;354;42.694;23.336;2023-04-04T12:22:02;94334.78;;;6.27;100.00
740;BME280;354;42.694;23.336;2023-04-04T12:24:27;94341.69;;;5.75;100.00
740;BME280;354;42.694;23.336;2023-04-04T12:26:53;94353.34;;;5.53;100.00
740;BME280;354;42.694;23.336;2023-04-04T12:29:21;94346.72;;;5.57;100.00
740;BME280;354;42.694;23.336;2023-04-04T12:31:47;94326.47;;;5.46;100.00
740;BME280;354;42.694;23.336;2023-04-04T12:34:17;94331.06;;;5.64;100.00
740;BME280;354;42.694;23.336;2023-04-04T12:36:46;94350.34;;;5.56;100.00
740;BME280;354;42.694;23.336;2023-04-04T12:39:14;94326.47;;;5.26;100.00
740;BME280;354;42.694;23.336;2023-04-04T12:41:50;94354.75;;;5.62;100.00
740;BME280;354;42.694;23.336;2023-04-04T12:46:59;94354.72;;;6.02;100.00
740;BME280;354;42.694;23.336;2023-04-04T12:49:33;94359.28;;;6.20;100.00
740;BME280;354;42.694;23.336;2023-04-04T12:51:59;94365.78;;;5.97;100.00
740;BME280;354;42.694;23.336;2023-04-04T12:54:38;94367.81;;;5.55;100.00
740;BME280;354;42.694;23.336;2023-04-04T12:57:04;94365.41;;;5.61;100.00
740;BME280;354;42.694;23.336;2023-04-04T12:59:35;94363.53;;;5.88;100.00
740;BME280;354;42.694;23.336;2023-04-04T13:02:04;94356.56;;;5.95;100.00
740;BME280;354;42.694;23.336;2023-04-04T13:04:31;94356.75;;;6.00;100.00
740;BME280;354;42.694;23.336;2023-04-04T13:06:57;94364.97;;;6.03;100.00
740;BME280;354;42.694;23.336;2023-04-04T13:09:24;94357.75;;;5.86;100.00
740;BME280;354;42.694;23.336;2023-04-04T13:12:00;94367.00;;;5.55;100.00
740;BME280;354;42.694;23.336;2023-04-04T13:14:55;94377.22;;;5.70;100.00
740;BME280;354;42.694;23.336;2023-04-04T13:17:20;94381.84;;;5.61;100.00
740;BME280;354;42.694;23.336;2023-04-04T13:19:46;94373.81;;;5.63;100.00
740;BME280;354;42.694;23.336;2023-04-04T13:22:12;94384.84;;;5.58;100.00
740;BME280;354;42.694;23.336;2023-04-04T13:24:37;94384.06;;;5.44;100.00
740;BME280;354;42.694;23.336;2023-04-04T13:27:02;94396.25;;;5.17;100.00
740;BME280;354;42.694;23.336;2023-04-04T13:29:28;94374.59;;;5.17;100.00
740;BME280;354;42.694;23.336;2023-04-04T13:31:53;94391.78;;;4.98;100.00
740;BME280;354;42.694;23.336;2023-04-04T13:34:22;94389.59;;;5.01;100.00
740;BME280;354;42.694;23.336;2023-04-04T13:36:51;94408.66;;;5.15;100.00
740;BME280;354;42.694;23.336;2023-04-04T13:39:17;94406.91;;;5.22;100.00
740;BME280;354;42.694;23.336;2023-04-04T13:41:43;94417.69;;;5.06;100.00
740;BME280;354;42.694;23.336;2023-04-04T13:44:08;94414.19;;;4.79;100.00
740;BME280;354;42.694;23.336;2023-04-04T13:46:33;94417.81;;;4.78;100.00